sensor_id;sensor_type;location;lat;lon;timestamp;P1;durP1;ratioP1;P2;durP2;ratioP2
7166;SDS011;3625;51.762;14.320;2022-11-20T00:01:36;10.73;;;8.83;;
7166;SDS011;3625;51.762;14.320;2022-11-20T00:04:05;11.10;;;8.83;;
7166;SDS011;3625;51.762;14.320;2022-11-20T00:06:35;13.67;;;9.80;;
7166;SDS011;3625;51.762;14.320;2022-11-20T00:09:03;12.03;;;9.33;;
7166;SDS011;3625;51.762;14.320;2022-11-20T00:11:32;10.50;;;8.93;;
7166;SDS011;3625;51.762;14.320;2022-11-20T00:14:01;11.73;;;9.47;;
7166;SDS011;3625;51.762;14.320;2022-11-20T00:16:30;12.23;;;9.83;;
7166;SDS011;3625;51.762;14.320;2022-11-20T00:19:00;11.80;;;10.03;;
7166;SDS011;3625;51.762;14.320;2022-11-20T00:21:29;11.53;;;9.90;;
7166;SDS011;3625;51.762;14.320;2022-11-20T00:23:59;14.63;;;11.30;;
7166;SDS011;3625;51.762;14.320;2022-11-20T00:26:28;14.23;;;10.50;;
7166;SDS011;3625;51.762;14.320;2022-11-20T00:28:58;15.57;;;11.53;;
7166;SDS011;3625;51.762;14.320;2022-11-20T00:31:28;13.97;;;10.97;;
7166;SDS011;3625;51.762;14.320;2022-11-20T00:33:59;14.20;;;11.97;;
7166;SDS011;3625;51.762;14.320;2022-11-20T00:36:28;15.17;;;11.37;;
7166;SDS011;3625;51.762;14.320;2022-11-20T00:39:01;13.87;;;11.70;;
7166;SDS011;3625;51.762;14.320;2022-11-20T00:41:29;13.83;;;11.47;;
7166;SDS011;3625;51.762;14.320;2022-11-20T00:43:58;13.43;;;10.67;;
7166;SDS011;3625;51.762;14.320;2022-11-20T00:46:27;14.63;;;11.30;;
7166;SDS011;3625;51.762;14.320;2022-11-20T00:48:56;14.43;;;11.70;;
7166;SDS011;3625;51.762;14.320;2022-11-20T00:51:25;14.33;;;11.33;;
7166;SDS011;3625;51.762;14.320;2022-11-20T00:53:55;14.30;;;11.27;;
7166;SDS011;3625;51.762;14.320;2022-11-20T00:56:28;16.90;;;11.73;;
7166;SDS011;3625;51.762;14.320;2022-11-20T00:58:58;14.00;;;10.97;;
7166;SDS011;3625;51.762;14.320;2022-11-20T01:01:28;12.83;;;11.23;;
7166;SDS011;3625;51.762;14.320;2022-11-20T01:03:57;16.60;;;11.47;;
7166;SDS011;3625;51.762;14.320;2022-11-20T01:06:28;13.47;;;11.57;;
7166;SDS011;3625;51.762;14.320;2022-11-20T01:08:59;13.73;;;11.53;;
7166;SDS011;3625;51.762;14.320;2022-11-20T01:11:32;12.83;;;11.43;;
7166;SDS011;3625;51.762;14.320;2022-11-20T01:14:04;13.50;;;11.43;;
7166;SDS011;3625;51.762;14.320;2022-11-20T01:16:35;15.30;;;11.57;;
7166;SDS011;3625;51.762;14.320;2022-11-20T01:19:05;14.27;;;11.90;;
7166;SDS011;3625;51.762;14.320;2022-11-20T01:21:43;13.30;;;10.97;;
7166;SDS011;3625;51.762;14.320;2022-11-20T01:24:13;14.50;;;12.20;;
7166;SDS011;3625;51.762;14.320;2022-11-20T01:26:46;14.23;;;11.50;;
7166;SDS011;3625;51.762;14.320;2022-11-20T01:29:17;13.37;;;11.57;;
7166;SDS011;3625;51.762;14.320;2022-11-20T01:31:48;14.90;;;11.33;;
7166;SDS011;3625;51.762;14.320;2022-11-20T01:34:18;12.30;;;10.33;;
7166;SDS011;3625;51.762;14.320;2022-11-20T01:36:48;13.87;;;10.70;;
7166;SDS011;3625;51.762;14.320;2022-11-20T01:39:18;13.73;;;11.13;;
7166;SDS011;3625;51.762;14.320;2022-11-20T01:41:51;14.13;;;11.00;;
7166;SDS011;3625;51.762;14.320;2022-11-20T01:44:52;14.23;;;11.87;;
7166;SDS011;3625;51.762;14.320;2022-11-20T01:47:26;12.47;;;9.90;;
7166;SDS011;3625;51.762;14.320;2022-11-20T01:50:03;14.80;;;10.83;;
7166;SDS011;3625;51.762;14.320;2022-11-20T01:52:38;13.13;;;11.40;;
7166;SDS011;3625;51.762;14.320;2022-11-20T01:55:14;12.77;;;10.80;;
7166;SDS011;3625;51.762;14.320;2022-11-20T01:57:47;14.73;;;11.97;;
7166;SDS011;3625;51.762;14.320;2022-11-20T02:00:18;13.20;;;10.37;;
7166;SDS011;3625;51.762;14.320;2022-11-20T02:02:49;13.63;;;10.97;;
7166;SDS011;3625;51.762;14.320;2022-11-20T02:05:22;11.27;;;9.43;;
7166;SDS011;3625;51.762;14.320;2022-11-20T02:07:54;11.37;;;9.83;;
7166;SDS011;3625;51.762;14.320;2022-11-20T02:10:25;14.37;;;11.60;;
7166;SDS011;3625;51.762;14.320;2022-11-20T02:12:57;12.80;;;11.40;;
7166;SDS011;3625;51.762;14.320;2022-11-20T02:15:43;15.67;;;12.43;;
7166;SDS011;3625;51.762;14.320;2022-11-20T02:18:13;13.43;;;10.70;;
7166;SDS011;3625;51.762;14.320;2022-11-20T02:21:24;14.67;;;11.13;;
7166;SDS011;3625;51.762;14.320;2022-11-20T02:24:06;17.33;;;12.53;;
7166;SDS011;3625;51.762;14.320;2022-11-20T02:26:39;15.33;;;11.47;;
7166;SDS011;3625;51.762;14.320;2022-11-20T02:29:14;13.93;;;10.67;;
7166;SDS011;3625;51.762;14.320;2022-11-20T02:31:47;16.43;;;11.63;;
7166;SDS011;3625;51.762;14.320;2022-11-20T02:34:15;17.27;;;12.73;;
7166;SDS011;3625;51.762;14.320;2022-11-20T02:36:44;15.47;;;11.63;;
7166;SDS011;3625;51.762;14.320;2022-11-20T02:39:15;14.93;;;11.17;;
7166;SDS011;3625;51.762;14.320;2022-11-20T02:41:44;16.90;;;13.00;;
7166;SDS011;3625;51.762;14.320;2022-11-20T02:44:13;17.33;;;12.27;;
7166;SDS011;3625;51.762;14.320;2022-11-20T02:46:41;16.17;;;12.67;;
7166;SDS011;3625;51.762;14.320;2022-11-20T02:49:10;16.60;;;13.50;;
7166;SDS011;3625;51.762;14.320;2022-11-20T02:51:39;15.43;;;12.43;;
7166;SDS011;3625;51.762;14.320;2022-11-20T02:54:07;19.00;;;14.17;;
7166;SDS011;3625;51.762;14.320;2022-11-20T02:56:38;18.03;;;13.40;;
7166;SDS011;3625;51.762;14.320;2022-11-20T02:59:07;16.53;;;12.97;;
7166;SDS011;3625;51.762;14.320;2022-11-20T03:01:36;19.00;;;13.50;;
7166;SDS011;3625;51.762;14.320;2022-11-20T03:04:05;18.37;;;14.33;;
7166;SDS011;3625;51.762;14.320;2022-11-20T03:06:33;19.47;;;14.10;;
7166;SDS011;3625;51.762;14.320;2022-11-20T03:09:02;18.73;;;14.53;;
7166;SDS011;3625;51.762;14.320;2022-11-20T03:11:31;19.97;;;14.77;;
7166;SDS011;3625;51.762;14.320;2022-11-20T03:14:02;20.60;;;15.37;;
7166;SDS011;3625;51.762;14.320;2022-11-20T03:16:31;19.77;;;14.90;;
7166;SDS011;3625;51.762;14.320;2022-11-20T03:19:00;19.93;;;15.00;;
7166;SDS011;3625;51.762;14.320;2022-11-20T03:21:29;18.23;;;13.77;;
7166;SDS011;3625;51.762;14.320;2022-11-20T03:23:57;18.33;;;14.40;;
7166;SDS011;3625;51.762;14.320;2022-11-20T03:26:26;22.10;;;15.00;;
7166;SDS011;3625;51.762;14.320;2022-11-20T03:28:55;21.30;;;14.83;;
7166;SDS011;3625;51.762;14.320;2022-11-20T03:31:27;18.90;;;14.50;;
7166;SDS011;3625;51.762;14.320;2022-11-20T03:33:57;22.37;;;16.17;;
7166;SDS011;3625;51.762;14.320;2022-11-20T03:36:26;22.20;;;15.40;;
7166;SDS011;3625;51.762;14.320;2022-11-20T03:38:56;20.60;;;14.60;;
7166;SDS011;3625;51.762;14.320;2022-11-20T03:41:25;22.40;;;15.10;;
7166;SDS011;3625;51.762;14.320;2022-11-20T03:43:55;21.47;;;15.20;;
7166;SDS011;3625;51.762;14.320;2022-11-20T03:46:27;22.67;;;16.10;;
7166;SDS011;3625;51.762;14.320;2022-11-20T03:48:56;22.47;;;15.47;;
7166;SDS011;3625;51.762;14.320;2022-11-20T03:51:25;22.33;;;16.37;;
7166;SDS011;3625;51.762;14.320;2022-11-20T03:53:56;23.57;;;15.73;;
7166;SDS011;3625;51.762;14.320;2022-11-20T03:56:26;20.80;;;15.17;;
7166;SDS011;3625;51.762;14.320;2022-11-20T03:58:58;17.87;;;13.07;;
7166;SDS011;3625;51.762;14.320;2022-11-20T04:01:29;17.60;;;12.93;;
7166;SDS011;3625;51.762;14.320;2022-11-20T04:03:58;17.90;;;13.20;;
7166;SDS011;3625;51.762;14.320;2022-11-20T04:06:29;21.80;;;14.40;;
7166;SDS011;3625;51.762;14.320;2022-11-20T04:09:01;21.53;;;15.00;;
7166;SDS011;3625;51.762;14.320;2022-11-20T04:11:30;21.70;;;14.50;;
7166;SDS011;3625;51.762;14.320;2022-11-20T04:14:00;19.17;;;13.40;;
7166;SDS011;3625;51.762;14.320;2022-11-20T04:16:32;15.30;;;11.77;;
7166;SDS011;3625;51.762;14.320;2022-11-20T04:19:02;21.60;;;14.17;;
7166;SDS011;3625;51.762;14.320;2022-11-20T04:21:32;21.13;;;14.70;;
7166;SDS011;3625;51.762;14.320;2022-11-20T04:24:01;18.40;;;13.57;;
7166;SDS011;3625;51.762;14.320;2022-11-20T04:26:30;19.63;;;14.03;;
7166;SDS011;3625;51.762;14.320;2022-11-20T04:28:59;21.27;;;15.50;;
7166;SDS011;3625;51.762;14.320;2022-11-20T04:31:28;19.40;;;13.63;;
7166;SDS011;3625;51.762;14.320;2022-11-20T04:34:00;18.67;;;14.23;;
7166;SDS011;3625;51.762;14.320;2022-11-20T04:36:32;20.63;;;13.80;;
7166;SDS011;3625;51.762;14.320;2022-11-20T04:39:02;22.67;;;16.07;;
7166;SDS011;3625;51.762;14.320;2022-11-20T04:41:33;20.27;;;14.50;;
7166;SDS011;3625;51.762;14.320;2022-11-20T04:44:04;24.40;;;15.20;;
7166;SDS011;3625;51.762;14.320;2022-11-20T04:46:35;20.90;;;15.30;;
7166;SDS011;3625;51.762;14.320;2022-11-20T04:49:05;21.77;;;14.10;;
7166;SDS011;3625;51.762;14.320;2022-11-20T04:51:35;20.73;;;14.33;;
7166;SDS011;3625;51.762;14.320;2022-11-20T04:54:04;22.20;;;15.20;;
7166;SDS011;3625;51.762;14.320;2022-11-20T04:56:33;21.40;;;14.93;;
7166;SDS011;3625;51.762;14.320;2022-11-20T04:59:01;23.73;;;15.07;;
7166;SDS011;3625;51.762;14.320;2022-11-20T05:01:30;21.90;;;15.20;;
7166;SDS011;3625;51.762;14.320;2022-11-20T05:04:00;21.67;;;15.87;;
7166;SDS011;3625;51.762;14.320;2022-11-20T05:06:29;23.10;;;15.93;;
7166;SDS011;3625;51.762;14.320;2022-11-20T05:08:57;20.93;;;15.13;;
7166;SDS011;3625;51.762;14.320;2022-11-20T05:11:27;23.23;;;15.63;;
7166;SDS011;3625;51.762;14.320;2022-11-20T05:13:58;22.57;;;16.43;;
7166;SDS011;3625;51.762;14.320;2022-11-20T05:16:27;23.87;;;15.37;;
7166;SDS011;3625;51.762;14.320;2022-11-20T05:18:55;21.30;;;14.57;;
7166;SDS011;3625;51.762;14.320;2022-11-20T05:21:25;20.80;;;15.03;;
7166;SDS011;3625;51.762;14.320;2022-11-20T05:23:54;23.63;;;15.67;;
7166;SDS011;3625;51.762;14.320;2022-11-20T05:26:23;24.17;;;15.07;;
7166;SDS011;3625;51.762;14.320;2022-11-20T05:28:52;21.30;;;15.47;;
7166;SDS011;3625;51.762;14.320;2022-11-20T05:31:21;17.43;;;13.53;;
7166;SDS011;3625;51.762;14.320;2022-11-20T05:33:54;23.37;;;15.07;;
7166;SDS011;3625;51.762;14.320;2022-11-20T05:36:23;19.93;;;15.17;;
7166;SDS011;3625;51.762;14.320;2022-11-20T05:38:53;21.40;;;15.33;;
7166;SDS011;3625;51.762;14.320;2022-11-20T05:41:27;21.33;;;14.87;;
7166;SDS011;3625;51.762;14.320;2022-11-20T05:43:56;22.27;;;15.93;;
7166;SDS011;3625;51.762;14.320;2022-11-20T05:46:25;21.80;;;14.93;;
7166;SDS011;3625;51.762;14.320;2022-11-20T05:48:55;22.63;;;15.93;;
7166;SDS011;3625;51.762;14.320;2022-11-20T05:51:26;23.47;;;14.83;;
7166;SDS011;3625;51.762;14.320;2022-11-20T05:53:56;22.50;;;14.73;;
7166;SDS011;3625;51.762;14.320;2022-11-20T05:56:25;21.50;;;13.77;;
7166;SDS011;3625;51.762;14.320;2022-11-20T05:58:53;19.93;;;13.90;;
7166;SDS011;3625;51.762;14.320;2022-11-20T06:01:23;23.47;;;15.63;;
7166;SDS011;3625;51.762;14.320;2022-11-20T06:03:53;22.47;;;14.33;;
7166;SDS011;3625;51.762;14.320;2022-11-20T06:06:22;21.53;;;14.37;;
7166;SDS011;3625;51.762;14.320;2022-11-20T06:08:53;22.60;;;15.17;;
7166;SDS011;3625;51.762;14.320;2022-11-20T06:11:22;16.77;;;12.97;;
7166;SDS011;3625;51.762;14.320;2022-11-20T06:13:51;19.93;;;14.70;;
7166;SDS011;3625;51.762;14.320;2022-11-20T06:16:19;19.80;;;13.93;;
7166;SDS011;3625;51.762;14.320;2022-11-20T06:18:49;22.43;;;15.60;;
7166;SDS011;3625;51.762;14.320;2022-11-20T06:21:18;21.93;;;15.30;;
7166;SDS011;3625;51.762;14.320;2022-11-20T06:23:48;20.50;;;14.03;;
7166;SDS011;3625;51.762;14.320;2022-11-20T06:26:19;24.00;;;15.43;;
7166;SDS011;3625;51.762;14.320;2022-11-20T06:28:50;22.67;;;15.47;;
7166;SDS011;3625;51.762;14.320;2022-11-20T06:31:20;23.77;;;15.17;;
7166;SDS011;3625;51.762;14.320;2022-11-20T06:33:50;21.60;;;13.80;;
7166;SDS011;3625;51.762;14.320;2022-11-20T06:36:20;20.63;;;14.27;;
7166;SDS011;3625;51.762;14.320;2022-11-20T06:38:49;19.77;;;14.13;;
7166;SDS011;3625;51.762;14.320;2022-11-20T06:41:20;23.63;;;15.73;;
7166;SDS011;3625;51.762;14.320;2022-11-20T06:43:49;24.03;;;15.73;;
7166;SDS011;3625;51.762;14.320;2022-11-20T06:46:18;19.67;;;12.97;;
7166;SDS011;3625;51.762;14.320;2022-11-20T06:48:48;23.03;;;15.10;;
7166;SDS011;3625;51.762;14.320;2022-11-20T06:51:17;22.23;;;15.63;;
7166;SDS011;3625;51.762;14.320;2022-11-20T06:53:46;21.20;;;15.67;;
7166;SDS011;3625;51.762;14.320;2022-11-20T06:56:14;20.93;;;14.53;;
7166;SDS011;3625;51.762;14.320;2022-11-20T06:58:44;20.73;;;13.93;;
7166;SDS011;3625;51.762;14.320;2022-11-20T07:01:13;21.47;;;15.37;;
7166;SDS011;3625;51.762;14.320;2022-11-20T07:03:43;22.07;;;14.43;;
7166;SDS011;3625;51.762;14.320;2022-11-20T07:06:18;22.67;;;15.67;;
7166;SDS011;3625;51.762;14.320;2022-11-20T07:08:46;24.03;;;15.50;;
7166;SDS011;3625;51.762;14.320;2022-11-20T07:11:17;23.00;;;15.87;;
7166;SDS011;3625;51.762;14.320;2022-11-20T07:13:47;21.87;;;14.47;;
7166;SDS011;3625;51.762;14.320;2022-11-20T07:16:16;25.40;;;16.63;;
7166;SDS011;3625;51.762;14.320;2022-11-20T07:18:44;23.77;;;15.83;;
7166;SDS011;3625;51.762;14.320;2022-11-20T07:21:16;20.77;;;14.07;;
7166;SDS011;3625;51.762;14.320;2022-11-20T07:23:45;24.03;;;16.13;;
7166;SDS011;3625;51.762;14.320;2022-11-20T07:26:15;22.73;;;15.80;;
7166;SDS011;3625;51.762;14.320;2022-11-20T07:28:43;23.73;;;15.93;;
7166;SDS011;3625;51.762;14.320;2022-11-20T07:31:14;23.23;;;16.27;;
7166;SDS011;3625;51.762;14.320;2022-11-20T07:33:45;24.93;;;17.03;;
7166;SDS011;3625;51.762;14.320;2022-11-20T07:36:13;22.87;;;16.00;;
7166;SDS011;3625;51.762;14.320;2022-11-20T07:38:42;24.03;;;15.63;;
7166;SDS011;3625;51.762;14.320;2022-11-20T07:41:11;21.77;;;15.40;;
7166;SDS011;3625;51.762;14.320;2022-11-20T07:43:40;21.70;;;15.67;;
7166;SDS011;3625;51.762;14.320;2022-11-20T07:46:09;25.83;;;16.83;;
7166;SDS011;3625;51.762;14.320;2022-11-20T07:48:39;24.13;;;16.27;;
7166;SDS011;3625;51.762;14.320;2022-11-20T07:51:08;22.03;;;14.90;;
7166;SDS011;3625;51.762;14.320;2022-11-20T07:53:36;22.60;;;16.53;;
7166;SDS011;3625;51.762;14.320;2022-11-20T07:56:06;22.73;;;15.60;;
7166;SDS011;3625;51.762;14.320;2022-11-20T07:58:35;23.23;;;15.43;;
7166;SDS011;3625;51.762;14.320;2022-11-20T08:01:04;22.63;;;14.67;;
7166;SDS011;3625;51.762;14.320;2022-11-20T08:03:34;22.77;;;14.80;;
7166;SDS011;3625;51.762;14.320;2022-11-20T08:06:07;23.27;;;15.87;;
7166;SDS011;3625;51.762;14.320;2022-11-20T08:08:36;21.90;;;15.00;;
7166;SDS011;3625;51.762;14.320;2022-11-20T08:11:08;21.63;;;15.57;;
7166;SDS011;3625;51.762;14.320;2022-11-20T08:13:54;22.30;;;14.80;;
7166;SDS011;3625;51.762;14.320;2022-11-20T08:16:42;22.03;;;14.30;;
7166;SDS011;3625;51.762;14.320;2022-11-20T08:19:13;21.70;;;14.87;;
7166;SDS011;3625;51.762;14.320;2022-11-20T08:21:45;20.77;;;14.23;;
7166;SDS011;3625;51.762;14.320;2022-11-20T08:24:14;21.03;;;15.13;;
7166;SDS011;3625;51.762;14.320;2022-11-20T08:26:43;24.43;;;15.43;;
7166;SDS011;3625;51.762;14.320;2022-11-20T08:29:12;21.63;;;14.97;;
7166;SDS011;3625;51.762;14.320;2022-11-20T08:31:40;22.80;;;15.90;;
7166;SDS011;3625;51.762;14.320;2022-11-20T08:34:09;20.70;;;15.30;;
7166;SDS011;3625;51.762;14.320;2022-11-20T08:36:45;19.87;;;14.40;;
7166;SDS011;3625;51.762;14.320;2022-11-20T08:39:14;22.13;;;17.50;;
7166;SDS011;3625;51.762;14.320;2022-11-20T08:41:43;22.73;;;15.37;;
7166;SDS011;3625;51.762;14.320;2022-11-20T08:44:12;19.97;;;14.27;;
7166;SDS011;3625;51.762;14.320;2022-11-20T08:46:41;23.17;;;14.97;;
7166;SDS011;3625;51.762;14.320;2022-11-20T08:49:12;20.43;;;14.90;;
7166;SDS011;3625;51.762;14.320;2022-11-20T08:51:42;20.37;;;14.67;;
7166;SDS011;3625;51.762;14.320;2022-11-20T08:54:13;21.97;;;15.10;;
7166;SDS011;3625;51.762;14.320;2022-11-20T08:56:44;23.73;;;15.87;;
7166;SDS011;3625;51.762;14.320;2022-11-20T08:59:14;18.33;;;12.03;;
7166;SDS011;3625;51.762;14.320;2022-11-20T09:02:03;21.80;;;15.30;;
7166;SDS011;3625;51.762;14.320;2022-11-20T09:04:32;19.50;;;14.60;;
7166;SDS011;3625;51.762;14.320;2022-11-20T09:07:01;19.90;;;13.73;;
7166;SDS011;3625;51.762;14.320;2022-11-20T09:09:31;21.77;;;15.37;;
7166;SDS011;3625;51.762;14.320;2022-11-20T09:12:00;21.57;;;15.07;;
7166;SDS011;3625;51.762;14.320;2022-11-20T09:14:29;20.17;;;14.07;;
7166;SDS011;3625;51.762;14.320;2022-11-20T09:16:58;18.97;;;13.93;;
7166;SDS011;3625;51.762;14.320;2022-11-20T09:19:27;20.87;;;13.80;;
7166;SDS011;3625;51.762;14.320;2022-11-20T09:22:02;19.10;;;14.00;;
7166;SDS011;3625;51.762;14.320;2022-11-20T09:24:33;20.07;;;14.17;;
7166;SDS011;3625;51.762;14.320;2022-11-20T09:27:02;20.53;;;13.90;;
7166;SDS011;3625;51.762;14.320;2022-11-20T09:29:32;18.67;;;13.73;;
7166;SDS011;3625;51.762;14.320;2022-11-20T09:32:00;17.53;;;13.10;;
7166;SDS011;3625;51.762;14.320;2022-11-20T09:34:29;17.00;;;12.27;;
7166;SDS011;3625;51.762;14.320;2022-11-20T09:36:58;18.80;;;12.77;;
7166;SDS011;3625;51.762;14.320;2022-11-20T09:39:34;20.10;;;13.47;;
7166;SDS011;3625;51.762;14.320;2022-11-20T09:42:09;17.90;;;13.23;;
7166;SDS011;3625;51.762;14.320;2022-11-20T09:45:13;16.57;;;13.43;;
7166;SDS011;3625;51.762;14.320;2022-11-20T09:47:59;17.30;;;12.70;;
7166;SDS011;3625;51.762;14.320;2022-11-20T09:50:43;18.97;;;12.40;;
7166;SDS011;3625;51.762;14.320;2022-11-20T09:53:20;17.27;;;12.87;;
7166;SDS011;3625;51.762;14.320;2022-11-20T09:55:59;17.23;;;11.10;;
7166;SDS011;3625;51.762;14.320;2022-11-20T09:58:31;16.73;;;12.00;;
7166;SDS011;3625;51.762;14.320;2022-11-20T10:01:09;17.43;;;12.47;;
7166;SDS011;3625;51.762;14.320;2022-11-20T10:03:51;16.53;;;12.70;;
7166;SDS011;3625;51.762;14.320;2022-11-20T10:06:24;18.10;;;13.40;;
7166;SDS011;3625;51.762;14.320;2022-11-20T10:09:00;20.57;;;13.60;;
7166;SDS011;3625;51.762;14.320;2022-11-20T10:11:44;18.87;;;12.87;;
7166;SDS011;3625;51.762;14.320;2022-11-20T10:14:26;19.03;;;13.17;;
7166;SDS011;3625;51.762;14.320;2022-11-20T10:17:03;16.97;;;12.37;;
7166;SDS011;3625;51.762;14.320;2022-11-20T10:19:58;18.30;;;13.33;;
7166;SDS011;3625;51.762;14.320;2022-11-20T10:22:47;17.07;;;12.47;;
7166;SDS011;3625;51.762;14.320;2022-11-20T10:25:39;16.30;;;12.23;;
7166;SDS011;3625;51.762;14.320;2022-11-20T10:28:21;15.50;;;11.77;;
7166;SDS011;3625;51.762;14.320;2022-11-20T10:30:59;15.97;;;12.00;;
7166;SDS011;3625;51.762;14.320;2022-11-20T10:33:31;16.83;;;11.60;;
7166;SDS011;3625;51.762;14.320;2022-11-20T10:36:23;16.77;;;12.10;;
7166;SDS011;3625;51.762;14.320;2022-11-20T10:38:57;16.67;;;11.60;;
7166;SDS011;3625;51.762;14.320;2022-11-20T10:41:32;16.63;;;11.67;;
7166;SDS011;3625;51.762;14.320;2022-11-20T10:44:12;14.27;;;10.30;;
7166;SDS011;3625;51.762;14.320;2022-11-20T10:47:04;14.17;;;10.40;;
7166;SDS011;3625;51.762;14.320;2022-11-20T10:49:37;14.77;;;11.13;;
7166;SDS011;3625;51.762;14.320;2022-11-20T10:52:09;15.27;;;11.87;;
7166;SDS011;3625;51.762;14.320;2022-11-20T10:54:44;14.10;;;10.73;;
7166;SDS011;3625;51.762;14.320;2022-11-20T10:57:23;16.80;;;11.30;;
7166;SDS011;3625;51.762;14.320;2022-11-20T11:00:05;16.73;;;11.63;;
7166;SDS011;3625;51.762;14.320;2022-11-20T11:02:39;15.47;;;10.83;;
7166;SDS011;3625;51.762;14.320;2022-11-20T11:05:13;13.80;;;10.73;;
7166;SDS011;3625;51.762;14.320;2022-11-20T11:07:57;13.77;;;10.40;;
7166;SDS011;3625;51.762;14.320;2022-11-20T11:10:28;14.30;;;10.90;;
7166;SDS011;3625;51.762;14.320;2022-11-20T11:13:03;14.03;;;10.10;;
7166;SDS011;3625;51.762;14.320;2022-11-20T11:15:38;14.23;;;10.70;;
7166;SDS011;3625;51.762;14.320;2022-11-20T11:18:08;14.20;;;10.20;;
7166;SDS011;3625;51.762;14.320;2022-11-20T11:33:01;14.70;;;11.90;;
7166;SDS011;3625;51.762;14.320;2022-11-20T11:35:33;13.43;;;10.50;;
7166;SDS011;3625;51.762;14.320;2022-11-20T11:38:07;13.23;;;9.73;;
7166;SDS011;3625;51.762;14.320;2022-11-20T11:40:41;15.53;;;11.37;;
7166;SDS011;3625;51.762;14.320;2022-11-20T11:43:18;14.97;;;11.57;;
7166;SDS011;3625;51.762;14.320;2022-11-20T11:46:09;14.77;;;10.87;;
7166;SDS011;3625;51.762;14.320;2022-11-20T11:49:01;14.87;;;11.20;;
7166;SDS011;3625;51.762;14.320;2022-11-20T11:51:41;13.37;;;9.87;;
7166;SDS011;3625;51.762;14.320;2022-11-20T11:54:20;14.53;;;10.90;;
7166;SDS011;3625;51.762;14.320;2022-11-20T11:56:53;14.63;;;11.13;;
7166;SDS011;3625;51.762;14.320;2022-11-20T11:59:23;15.40;;;9.77;;
7166;SDS011;3625;51.762;14.320;2022-11-20T12:01:57;12.93;;;10.20;;
7166;SDS011;3625;51.762;14.320;2022-11-20T12:04:40;13.10;;;9.30;;
7166;SDS011;3625;51.762;14.320;2022-11-20T12:07:13;13.20;;;9.80;;
7166;SDS011;3625;51.762;14.320;2022-11-20T12:10:14;12.50;;;9.37;;
7166;SDS011;3625;51.762;14.320;2022-11-20T12:12:50;14.23;;;9.63;;
7166;SDS011;3625;51.762;14.320;2022-11-20T12:15:26;15.03;;;9.97;;
7166;SDS011;3625;51.762;14.320;2022-11-20T12:17:59;10.17;;;8.17;;
7166;SDS011;3625;51.762;14.320;2022-11-20T12:20:32;10.73;;;8.87;;
7166;SDS011;3625;51.762;14.320;2022-11-20T12:23:08;12.23;;;9.40;;
7166;SDS011;3625;51.762;14.320;2022-11-20T12:25:44;11.97;;;9.70;;
7166;SDS011;3625;51.762;14.320;2022-11-20T12:31:16;11.90;;;9.70;;
7166;SDS011;3625;51.762;14.320;2022-11-20T12:34:09;13.87;;;9.80;;
7166;SDS011;3625;51.762;14.320;2022-11-20T12:37:08;11.33;;;8.90;;
7166;SDS011;3625;51.762;14.320;2022-11-20T12:39:47;14.53;;;10.17;;
7166;SDS011;3625;51.762;14.320;2022-11-20T12:42:21;12.43;;;9.57;;
7166;SDS011;3625;51.762;14.320;2022-11-20T12:48:50;11.20;;;8.33;;
7166;SDS011;3625;51.762;14.320;2022-11-20T12:54:32;12.97;;;9.50;;
7166;SDS011;3625;51.762;14.320;2022-11-20T12:57:08;9.70;;;8.40;;
7166;SDS011;3625;51.762;14.320;2022-11-20T12:59:49;10.10;;;8.30;;
7166;SDS011;3625;51.762;14.320;2022-11-20T13:02:29;11.27;;;8.80;;
7166;SDS011;3625;51.762;14.320;2022-11-20T13:05:17;12.77;;;9.73;;
7166;SDS011;3625;51.762;14.320;2022-11-20T13:07:52;14.17;;;10.33;;
7166;SDS011;3625;51.762;14.320;2022-11-20T13:10:26;13.73;;;9.17;;
7166;SDS011;3625;51.762;14.320;2022-11-20T13:13:03;13.07;;;10.17;;
7166;SDS011;3625;51.762;14.320;2022-11-20T13:15:43;12.80;;;10.27;;
7166;SDS011;3625;51.762;14.320;2022-11-20T13:18:19;12.60;;;8.93;;
7166;SDS011;3625;51.762;14.320;2022-11-20T13:20:48;14.33;;;10.17;;
7166;SDS011;3625;51.762;14.320;2022-11-20T13:23:24;15.00;;;11.00;;
7166;SDS011;3625;51.762;14.320;2022-11-20T13:26:05;14.37;;;9.70;;
7166;SDS011;3625;51.762;14.320;2022-11-20T13:28:47;12.90;;;9.50;;
7166;SDS011;3625;51.762;14.320;2022-11-20T13:31:28;14.40;;;10.37;;
7166;SDS011;3625;51.762;14.320;2022-11-20T13:34:00;13.27;;;8.27;;
7166;SDS011;3625;51.762;14.320;2022-11-20T13:36:34;10.10;;;8.60;;
7166;SDS011;3625;51.762;14.320;2022-11-20T13:39:03;12.70;;;9.37;;
7166;SDS011;3625;51.762;14.320;2022-11-20T13:41:35;11.27;;;8.80;;
7166;SDS011;3625;51.762;14.320;2022-11-20T13:44:09;12.40;;;9.57;;
7166;SDS011;3625;51.762;14.320;2022-11-20T13:46:43;13.63;;;10.47;;
7166;SDS011;3625;51.762;14.320;2022-11-20T13:49:18;15.40;;;10.73;;
7166;SDS011;3625;51.762;14.320;2022-11-20T13:51:51;13.23;;;9.90;;
7166;SDS011;3625;51.762;14.320;2022-11-20T13:54:48;13.03;;;9.40;;
7166;SDS011;3625;51.762;14.320;2022-11-20T14:00:27;15.10;;;10.30;;
7166;SDS011;3625;51.762;14.320;2022-11-20T14:02:59;15.27;;;10.60;;
7166;SDS011;3625;51.762;14.320;2022-11-20T14:05:36;15.13;;;10.87;;
7166;SDS011;3625;51.762;14.320;2022-11-20T14:08:12;14.43;;;10.60;;
7166;SDS011;3625;51.762;14.320;2022-11-20T14:10:48;14.37;;;11.30;;
7166;SDS011;3625;51.762;14.320;2022-11-20T14:13:19;13.97;;;9.77;;
7166;SDS011;3625;51.762;14.320;2022-11-20T14:15:56;14.47;;;10.60;;
7166;SDS011;3625;51.762;14.320;2022-11-20T14:18:25;13.73;;;10.30;;
7166;SDS011;3625;51.762;14.320;2022-11-20T14:20:55;14.63;;;10.47;;
7166;SDS011;3625;51.762;14.320;2022-11-20T14:23:28;12.97;;;9.37;;
7166;SDS011;3625;51.762;14.320;2022-11-20T14:25:57;13.60;;;9.90;;
7166;SDS011;3625;51.762;14.320;2022-11-20T14:28:28;13.67;;;10.20;;
7166;SDS011;3625;51.762;14.320;2022-11-20T14:30:59;14.27;;;9.87;;
7166;SDS011;3625;51.762;14.320;2022-11-20T14:33:27;13.90;;;10.33;;
7166;SDS011;3625;51.762;14.320;2022-11-20T14:35:59;11.47;;;9.30;;
7166;SDS011;3625;51.762;14.320;2022-11-20T14:38:29;11.73;;;9.27;;
7166;SDS011;3625;51.762;14.320;2022-11-20T14:41:06;12.60;;;9.93;;
7166;SDS011;3625;51.762;14.320;2022-11-20T14:43:37;12.97;;;9.33;;
7166;SDS011;3625;51.762;14.320;2022-11-20T14:46:07;13.87;;;9.80;;
7166;SDS011;3625;51.762;14.320;2022-11-20T14:48:38;13.73;;;10.27;;
7166;SDS011;3625;51.762;14.320;2022-11-20T14:51:22;13.23;;;9.93;;
7166;SDS011;3625;51.762;14.320;2022-11-20T14:54:07;12.73;;;10.23;;
7166;SDS011;3625;51.762;14.320;2022-11-20T14:56:41;13.47;;;9.73;;
7166;SDS011;3625;51.762;14.320;2022-11-20T14:59:23;14.13;;;10.30;;
7166;SDS011;3625;51.762;14.320;2022-11-20T15:01:54;13.87;;;10.03;;
7166;SDS011;3625;51.762;14.320;2022-11-20T15:04:26;12.37;;;9.00;;
7166;SDS011;3625;51.762;14.320;2022-11-20T15:06:57;15.07;;;9.97;;
7166;SDS011;3625;51.762;14.320;2022-11-20T15:09:26;14.47;;;11.20;;
7166;SDS011;3625;51.762;14.320;2022-11-20T15:11:56;13.73;;;10.20;;
7166;SDS011;3625;51.762;14.320;2022-11-20T15:14:28;14.40;;;10.33;;
7166;SDS011;3625;51.762;14.320;2022-11-20T15:17:00;15.00;;;10.23;;
7166;SDS011;3625;51.762;14.320;2022-11-20T15:19:30;18.63;;;11.80;;
7166;SDS011;3625;51.762;14.320;2022-11-20T15:22:00;12.83;;;10.47;;
7166;SDS011;3625;51.762;14.320;2022-11-20T15:24:30;16.93;;;11.13;;
7166;SDS011;3625;51.762;14.320;2022-11-20T15:26:59;14.10;;;10.83;;
7166;SDS011;3625;51.762;14.320;2022-11-20T15:29:29;13.77;;;10.97;;
7166;SDS011;3625;51.762;14.320;2022-11-20T15:31:58;15.33;;;10.63;;
7166;SDS011;3625;51.762;14.320;2022-11-20T15:34:27;13.20;;;10.60;;